sensor_id;sensor_type;location;lat;lon;timestamp;temperature;humidity
68378;DHT22;55322;48.146;11.516;2023-06-24T00:00:34;15.51;86.86
68378;DHT22;55322;48.146;11.516;2023-06-24T00:02:59;15.49;86.69
68378;DHT22;55322;48.146;11.516;2023-06-24T00:05:27;15.54;87.14
68378;DHT22;55322;48.146;11.516;2023-06-24T00:07:53;15.55;87.46
68378;DHT22;55322;48.146;11.516;2023-06-24T00:10:22;15.56;87.27
68378;DHT22;55322;48.146;11.516;2023-06-24T00:12:47;15.55;86.83
68378;DHT22;55322;48.146;11.516;2023-06-24T00:15:13;15.54;87.50
68378;DHT22;55322;48.146;11.516;2023-06-24T00:17:38;15.54;87.47
68378;DHT22;55322;48.146;11.516;2023-06-24T00:20:04;15.58;87.79
68378;DHT22;55322;48.146;11.516;2023-06-24T00:22:32;15.55;86.75
68378;DHT22;55322;48.146;11.516;2023-06-24T00:24:57;15.61;86.60
68378;DHT22;55322;48.146;11.516;2023-06-24T00:27:24;15.59;86.23
68378;DHT22;55322;48.146;11.516;2023-06-24T00:29:49;15.65;85.94
68378;DHT22;55322;48.146;11.516;2023-06-24T00:32:14;15.69;85.93
68378;DHT22;55322;48.146;11.516;2023-06-24T00:34:40;15.69;85.94
68378;DHT22;55322;48.146;11.516;2023-06-24T00:37:09;15.73;85.30
68378;DHT22;55322;48.146;11.516;2023-06-24T00:39:34;15.81;84.70
68378;DHT22;55322;48.146;11.516;2023-06-24T00:41:59;15.86;82.66
68378;DHT22;55322;48.146;11.516;2023-06-24T00:44:25;15.88;83.66
68378;DHT22;55322;48.146;11.516;2023-06-24T00:46:50;15.88;84.32
68378;DHT22;55322;48.146;11.516;2023-06-24T00:49:16;15.89;83.23
68378;DHT22;55322;48.146;11.516;2023-06-24T00:51:41;15.88;82.87
68378;DHT22;55322;48.146;11.516;2023-06-24T00:54:18;15.89;83.42
68378;DHT22;55322;48.146;11.516;2023-06-24T00:56:43;15.85;83.98
68378;DHT22;55322;48.146;11.516;2023-06-24T00:59:10;15.78;86.00
68378;DHT22;55322;48.146;11.516;2023-06-24T01:01:38;15.70;85.79
68378;DHT22;55322;48.146;11.516;2023-06-24T01:04:04;15.68;85.35
68378;DHT22;55322;48.146;11.516;2023-06-24T01:06:30;15.66;84.96
68378;DHT22;55322;48.146;11.516;2023-06-24T01:08:59;15.65;84.82
68378;DHT22;55322;48.146;11.516;2023-06-24T01:11:29;15.68;84.03
68378;DHT22;55322;48.146;11.516;2023-06-24T01:13:56;15.73;83.21
68378;DHT22;55322;48.146;11.516;2023-06-24T01:16:35;15.81;82.62
68378;DHT22;55322;48.146;11.516;2023-06-24T01:25:13;15.89;82.50
68378;DHT22;55322;48.146;11.516;2023-06-24T01:30:41;15.85;83.14
68378;DHT22;55322;48.146;11.516;2023-06-24T01:33:15;15.90;82.64
68378;DHT22;55322;48.146;11.516;2023-06-24T01:35:46;15.90;82.52
68378;DHT22;55322;48.146;11.516;2023-06-24T01:38:26;15.90;82.18
68378;DHT22;55322;48.146;11.516;2023-06-24T01:40:52;15.90;82.52
68378;DHT22;55322;48.146;11.516;2023-06-24T01:43:19;15.93;81.97
68378;DHT22;55322;48.146;11.516;2023-06-24T01:45:50;15.95;81.31
68378;DHT22;55322;48.146;11.516;2023-06-24T01:48:19;15.98;80.70
68378;DHT22;55322;48.146;11.516;2023-06-24T01:50:57;16.02;81.19
68378;DHT22;55322;48.146;11.516;2023-06-24T01:53:23;16.02;81.87
68378;DHT22;55322;48.146;11.516;2023-06-24T01:55:50;16.00;80.94
68378;DHT22;55322;48.146;11.516;2023-06-24T01:58:17;15.99;80.74
68378;DHT22;55322;48.146;11.516;2023-06-24T02:00:43;16.05;80.92
68378;DHT22;55322;48.146;11.516;2023-06-24T02:03:09;16.06;81.51
68378;DHT22;55322;48.146;11.516;2023-06-24T02:05:36;16.06;81.23
68378;DHT22;55322;48.146;11.516;2023-06-24T02:08:05;15.98;81.38
68378;DHT22;55322;48.146;11.516;2023-06-24T02:10:33;15.90;82.17
68378;DHT22;55322;48.146;11.516;2023-06-24T02:12:59;15.86;82.37
68378;DHT22;55322;48.146;11.516;2023-06-24T02:15:25;15.82;83.15
68378;DHT22;55322;48.146;11.516;2023-06-24T02:17:52;15.79;81.87
68378;DHT22;55322;48.146;11.516;2023-06-24T02:20:21;15.79;83.41
68378;DHT22;55322;48.146;11.516;2023-06-24T02:22:53;15.70;84.38
68378;DHT22;55322;48.146;11.516;2023-06-24T02:25:19;15.70;84.46
68378;DHT22;55322;48.146;11.516;2023-06-24T02:27:45;15.72;83.18
68378;DHT22;55322;48.146;11.516;2023-06-24T02:30:11;15.76;84.10
68378;DHT22;55322;48.146;11.516;2023-06-24T02:32:37;15.79;82.72
68378;DHT22;55322;48.146;11.516;2023-06-24T02:35:05;15.79;82.75
68378;DHT22;55322;48.146;11.516;2023-06-24T02:37:31;15.88;81.78
68378;DHT22;55322;48.146;11.516;2023-06-24T02:39:57;15.92;80.31
68378;DHT22;55322;48.146;11.516;2023-06-24T02:42:22;15.95;80.81
68378;DHT22;55322;48.146;11.516;2023-06-24T02:44:48;15.99;80.80
68378;DHT22;55322;48.146;11.516;2023-06-24T02:47:14;15.99;80.67
68378;DHT22;55322;48.146;11.516;2023-06-24T02:49:42;15.96;80.32
68378;DHT22;55322;48.146;11.516;2023-06-24T02:52:12;15.89;80.25
68378;DHT22;55322;48.146;11.516;2023-06-24T02:54:38;15.95;80.14
68378;DHT22;55322;48.146;11.516;2023-06-24T02:57:05;15.86;81.46
68378;DHT22;55322;48.146;11.516;2023-06-24T02:59:32;15.90;81.17
68378;DHT22;55322;48.146;11.516;2023-06-24T03:01:57;15.88;80.53
68378;DHT22;55322;48.146;11.516;2023-06-24T03:04:23;15.89;81.36
68378;DHT22;55322;48.146;11.516;2023-06-24T03:06:49;15.89;80.72
68378;DHT22;55322;48.146;11.516;2023-06-24T03:09:16;15.92;81.08
68378;DHT22;55322;48.146;11.516;2023-06-24T03:11:43;15.83;82.08
68378;DHT22;55322;48.146;11.516;2023-06-24T03:14:09;15.81;81.73
68378;DHT22;55322;48.146;11.516;2023-06-24T03:16:35;15.81;82.98
68378;DHT22;55322;48.146;11.516;2023-06-24T03:19:00;15.83;81.58
68378;DHT22;55322;48.146;11.516;2023-06-24T03:21:25;15.83;81.79
68378;DHT22;55322;48.146;11.516;2023-06-24T03:23:56;15.82;81.11
68378;DHT22;55322;48.146;11.516;2023-06-24T03:26:37;15.75;80.69
68378;DHT22;55322;48.146;11.516;2023-06-24T03:29:02;15.76;80.82
68378;DHT22;55322;48.146;11.516;2023-06-24T03:31:28;15.75;80.58
68378;DHT22;55322;48.146;11.516;2023-06-24T03:33:53;15.76;80.68
68378;DHT22;55322;48.146;11.516;2023-06-24T03:36:19;15.73;81.99
68378;DHT22;55322;48.146;11.516;2023-06-24T03:38:45;15.75;81.73
68378;DHT22;55322;48.146;11.516;2023-06-24T03:41:10;15.72;82.52
68378;DHT22;55322;48.146;11.516;2023-06-24T03:43:36;15.76;81.06
68378;DHT22;55322;48.146;11.516;2023-06-24T03:46:01;15.79;81.14
68378;DHT22;55322;48.146;11.516;2023-06-24T03:48:27;15.70;81.64
68378;DHT22;55322;48.146;11.516;2023-06-24T03:50:52;15.66;82.31
68378;DHT22;55322;48.146;11.516;2023-06-24T03:53:18;15.66;82.84
68378;DHT22;55322;48.146;11.516;2023-06-24T03:55:43;15.65;82.05
68378;DHT22;55322;48.146;11.516;2023-06-24T03:58:09;15.69;80.22
68378;DHT22;55322;48.146;11.516;2023-06-24T04:00:34;15.72;80.89
68378;DHT22;55322;48.146;11.516;2023-06-24T04:03:01;15.69;81.39
68378;DHT22;55322;48.146;11.516;2023-06-24T04:05:26;15.75;80.64
68378;DHT22;55322;48.146;11.516;2023-06-24T04:07:52;15.72;79.54
68378;DHT22;55322;48.146;11.516;2023-06-24T04:10:18;15.76;78.97
68378;DHT22;55322;48.146;11.516;2023-06-24T04:12:47;15.76;78.82
68378;DHT22;55322;48.146;11.516;2023-06-24T04:15:12;15.73;81.56
68378;DHT22;55322;48.146;11.516;2023-06-24T04:17:38;15.73;81.60
68378;DHT22;55322;48.146;11.516;2023-06-24T04:20:04;15.72;81.53
68378;DHT22;55322;48.146;11.516;2023-06-24T04:22:32;15.75;81.18
68378;DHT22;55322;48.146;11.516;2023-06-24T04:24:57;15.72;80.96
68378;DHT22;55322;48.146;11.516;2023-06-24T04:27:22;15.75;81.90
68378;DHT22;55322;48.146;11.516;2023-06-24T04:29:48;15.82;80.06
68378;DHT22;55322;48.146;11.516;2023-06-24T04:32:13;15.88;79.35
68378;DHT22;55322;48.146;11.516;2023-06-24T04:34:38;15.90;81.17
68378;DHT22;55322;48.146;11.516;2023-06-24T04:37:05;15.90;80.68
68378;DHT22;55322;48.146;11.516;2023-06-24T04:39:31;15.93;81.74
68378;DHT22;55322;48.146;11.516;2023-06-24T04:41:56;15.98;80.43
68378;DHT22;55322;48.146;11.516;2023-06-24T04:44:21;15.99;80.00
68378;DHT22;55322;48.146;11.516;2023-06-24T04:46:47;16.03;80.08
68378;DHT22;55322;48.146;11.516;2023-06-24T04:49:12;16.06;80.71
68378;DHT22;55322;48.146;11.516;2023-06-24T04:51:37;16.09;80.20
68378;DHT22;55322;48.146;11.516;2023-06-24T04:54:03;16.10;79.36
68378;DHT22;55322;48.146;11.516;2023-06-24T04:56:29;16.13;80.02
68378;DHT22;55322;48.146;11.516;2023-06-24T04:58:54;16.14;79.99
68378;DHT22;55322;48.146;11.516;2023-06-24T05:01:20;16.20;79.79
68378;DHT22;55322;48.146;11.516;2023-06-24T05:03:47;16.23;79.74
68378;DHT22;55322;48.146;11.516;2023-06-24T05:06:12;16.26;79.70
68378;DHT22;55322;48.146;11.516;2023-06-24T05:08:37;16.30;79.49
68378;DHT22;55322;48.146;11.516;2023-06-24T05:11:03;16.33;78.60
68378;DHT22;55322;48.146;11.516;2023-06-24T05:13:29;16.37;79.86
68378;DHT22;55322;48.146;11.516;2023-06-24T05:15:54;16.44;78.44
68378;DHT22;55322;48.146;11.516;2023-06-24T05:18:19;16.44;78.20
68378;DHT22;55322;48.146;11.516;2023-06-24T05:20:45;16.47;80.38
68378;DHT22;55322;48.146;11.516;2023-06-24T05:23:10;16.50;78.82
68378;DHT22;55322;48.146;11.516;2023-06-24T05:25:35;16.54;77.25
68378;DHT22;55322;48.146;11.516;2023-06-24T05:28:01;16.51;78.91
68378;DHT22;55322;48.146;11.516;2023-06-24T05:30:26;16.46;79.35
68378;DHT22;55322;48.146;11.516;2023-06-24T05:32:51;16.44;80.67
68378;DHT22;55322;48.146;11.516;2023-06-24T05:35:17;16.53;80.28
68378;DHT22;55322;48.146;11.516;2023-06-24T05:37:42;16.56;78.72
68378;DHT22;55322;48.146;11.516;2023-06-24T05:40:08;16.63;77.19
68378;DHT22;55322;48.146;11.516;2023-06-24T05:42:34;16.68;76.86
68378;DHT22;55322;48.146;11.516;2023-06-24T05:45:00;16.77;76.84
68378;DHT22;55322;48.146;11.516;2023-06-24T05:47:25;16.84;77.41
68378;DHT22;55322;48.146;11.516;2023-06-24T05:49:50;16.85;74.89
68378;DHT22;55322;48.146;11.516;2023-06-24T05:52:16;16.88;75.10
68378;DHT22;55322;48.146;11.516;2023-06-24T05:54:41;16.94;76.24
68378;DHT22;55322;48.146;11.516;2023-06-24T05:57:07;16.98;77.56
68378;DHT22;55322;48.146;11.516;2023-06-24T05:59:33;17.04;78.28
68378;DHT22;55322;48.146;11.516;2023-06-24T06:01:58;17.05;74.97
68378;DHT22;55322;48.146;11.516;2023-06-24T06:04:24;17.10;77.07
68378;DHT22;55322;48.146;11.516;2023-06-24T06:06:49;17.00;75.68
68378;DHT22;55322;48.146;11.516;2023-06-24T06:09:15;17.00;76.15
68378;DHT22;55322;48.146;11.516;2023-06-24T06:11:40;16.96;76.63
68378;DHT22;55322;48.146;11.516;2023-06-24T06:14:05;17.00;77.12
68378;DHT22;55322;48.146;11.516;2023-06-24T06:16:31;17.00;78.43
68378;DHT22;55322;48.146;11.516;2023-06-24T06:18:56;17.05;77.17
68378;DHT22;55322;48.146;11.516;2023-06-24T06:21:21;17.12;76.66
68378;DHT22;55322;48.146;11.516;2023-06-24T06:23:47;17.25;73.84
68378;DHT22;55322;48.146;11.516;2023-06-24T06:26:12;17.42;76.25
68378;DHT22;55322;48.146;11.516;2023-06-24T06:28:38;17.66;72.61
68378;DHT22;55322;48.146;11.516;2023-06-24T06:31:03;17.75;72.28
68378;DHT22;55322;48.146;11.516;2023-06-24T06:33:28;18.03;72.83
68378;DHT22;55322;48.146;11.516;2023-06-24T06:35:54;18.17;72.91
68378;DHT22;55322;48.146;11.516;2023-06-24T06:38:19;18.31;72.39
68378;DHT22;55322;48.146;11.516;2023-06-24T06:40:44;18.38;74.10
68378;DHT22;55322;48.146;11.516;2023-06-24T06:43:10;18.45;70.68
68378;DHT22;55322;48.146;11.516;2023-06-24T06:45:35;18.54;72.50
68378;DHT22;55322;48.146;11.516;2023-06-24T06:48:02;18.60;70.03
68378;DHT22;55322;48.146;11.516;2023-06-24T06:50:27;18.69;67.25
68378;DHT22;55322;48.146;11.516;2023-06-24T06:52:52;18.71;67.79
68378;DHT22;55322;48.146;11.516;2023-06-24T06:55:18;18.81;66.68
68378;DHT22;55322;48.146;11.516;2023-06-24T06:57:43;19.06;64.97
68378;DHT22;55322;48.146;11.516;2023-06-24T07:00:09;19.30;63.93
68378;DHT22;55322;48.146;11.516;2023-06-24T07:02:34;19.48;64.46
68378;DHT22;55322;48.146;11.516;2023-06-24T07:04:59;19.53;62.42
68378;DHT22;55322;48.146;11.516;2023-06-24T07:07:26;19.43;64.90
68378;DHT22;55322;48.146;11.516;2023-06-24T07:09:51;19.42;64.35
68378;DHT22;55322;48.146;11.516;2023-06-24T07:12:16;19.43;62.77
68378;DHT22;55322;48.146;11.516;2023-06-24T07:14:42;19.43;60.36
68378;DHT22;55322;48.146;11.516;2023-06-24T07:17:07;19.40;60.20
68378;DHT22;55322;48.146;11.516;2023-06-24T07:19:32;19.23;59.88
68378;DHT22;55322;48.146;11.516;2023-06-24T07:21:58;19.09;59.92
68378;DHT22;55322;48.146;11.516;2023-06-24T07:24:23;19.12;60.38
68378;DHT22;55322;48.146;11.516;2023-06-24T07:26:48;19.14;64.72
68378;DHT22;55322;48.146;11.516;2023-06-24T07:29:14;18.99;67.52
68378;DHT22;55322;48.146;11.516;2023-06-24T07:31:39;19.01;66.62
68378;DHT22;55322;48.146;11.516;2023-06-24T07:34:04;19.02;65.37
68378;DHT22;55322;48.146;11.516;2023-06-24T07:36:30;19.14;60.91
68378;DHT22;55322;48.146;11.516;2023-06-24T07:38:55;19.22;59.44
68378;DHT22;55322;48.146;11.516;2023-06-24T07:41:21;19.20;59.44
68378;DHT22;55322;48.146;11.516;2023-06-24T07:43:46;19.25;59.91
68378;DHT22;55322;48.146;11.516;2023-06-24T07:46:11;19.14;62.14
68378;DHT22;55322;48.146;11.516;2023-06-24T07:48:37;19.08;65.41
68378;DHT22;55322;48.146;11.516;2023-06-24T07:51:02;19.16;63.75
68378;DHT22;55322;48.146;11.516;2023-06-24T07:53:27;19.19;61.59
68378;DHT22;55322;48.146;11.516;2023-06-24T07:55:53;19.14;63.65
68378;DHT22;55322;48.146;11.516;2023-06-24T07:58:18;18.96;61.92
68378;DHT22;55322;48.146;11.516;2023-06-24T08:00:46;18.81;66.52
68378;DHT22;55322;48.146;11.516;2023-06-24T08:03:12;18.68;67.01
68378;DHT22;55322;48.146;11.516;2023-06-24T08:05:38;18.68;68.67
68378;DHT22;55322;48.146;11.516;2023-06-24T08:08:05;18.65;69.48
68378;DHT22;55322;48.146;11.516;2023-06-24T08:10:30;18.54;68.50
68378;DHT22;55322;48.146;11.516;2023-06-24T08:12:56;18.50;67.59
68378;DHT22;55322;48.146;11.516;2023-06-24T08:15:21;18.61;68.32
68378;DHT22;55322;48.146;11.516;2023-06-24T08:17:51;18.65;70.06
68378;DHT22;55322;48.146;11.516;2023-06-24T08:20:17;18.53;68.29
68378;DHT22;55322;48.146;11.516;2023-06-24T08:22:42;18.57;67.02
68378;DHT22;55322;48.146;11.516;2023-06-24T08:25:08;18.60;69.27
68378;DHT22;55322;48.146;11.516;2023-06-24T08:27:33;18.63;68.30
68378;DHT22;55322;48.146;11.516;2023-06-24T08:29:58;18.76;67.43
68378;DHT22;55322;48.146;11.516;2023-06-24T08:32:24;19.01;69.14
68378;DHT22;55322;48.146;11.516;2023-06-24T08:34:50;19.43;68.25
68378;DHT22;55322;48.146;11.516;2023-06-24T08:37:15;19.45;68.35
68378;DHT22;55322;48.146;11.516;2023-06-24T08:39:41;19.76;68.28
68378;DHT22;55322;48.146;11.516;2023-06-24T08:42:06;20.10;65.71
68378;DHT22;55322;48.146;11.516;2023-06-24T08:44:31;20.41;65.58
68378;DHT22;55322;48.146;11.516;2023-06-24T08:46:57;20.43;65.25
68378;DHT22;55322;48.146;11.516;2023-06-24T08:49:25;20.78;65.40
68378;DHT22;55322;48.146;11.516;2023-06-24T08:52:14;21.05;60.06
68378;DHT22;55322;48.146;11.516;2023-06-24T08:54:40;21.12;61.47
68378;DHT22;55322;48.146;11.516;2023-06-24T08:57:06;21.38;61.39
68378;DHT22;55322;48.146;11.516;2023-06-24T08:59:36;21.66;59.36
68378;DHT22;55322;48.146;11.516;2023-06-24T09:02:02;21.50;56.77
68378;DHT22;55322;48.146;11.516;2023-06-24T09:04:27;21.57;58.42
68378;DHT22;55322;48.146;11.516;2023-06-24T09:06:53;21.49;60.30
68378;DHT22;55322;48.146;11.516;2023-06-24T09:09:19;21.70;58.46
68378;DHT22;55322;48.146;11.516;2023-06-24T09:11:52;22.01;57.50
68378;DHT22;55322;48.146;11.516;2023-06-24T09:14:18;21.81;60.11
68378;DHT22;55322;48.146;11.516;2023-06-24T09:16:56;21.51;60.26
68378;DHT22;55322;48.146;11.516;2023-06-24T09:19:26;21.25;58.65
68378;DHT22;55322;48.146;11.516;2023-06-24T09:21:55;20.63;58.70
68378;DHT22;55322;48.146;11.516;2023-06-24T09:24:27;20.24;61.53
68378;DHT22;55322;48.146;11.516;2023-06-24T09:26:55;19.94;61.47
68378;DHT22;55322;48.146;11.516;2023-06-24T09:29:25;19.77;62.08
68378;DHT22;55322;48.146;11.516;2023-06-24T09:31:54;19.70;61.19
68378;DHT22;55322;48.146;11.516;2023-06-24T09:34:31;19.63;60.21
68378;DHT22;55322;48.146;11.516;2023-06-24T09:36:58;19.58;65.95
68378;DHT22;55322;48.146;11.516;2023-06-24T09:39:24;19.81;60.65
68378;DHT22;55322;48.146;11.516;2023-06-24T09:42:00;20.00;59.25
68378;DHT22;55322;48.146;11.516;2023-06-24T09:44:27;20.18;60.78
68378;DHT22;55322;48.146;11.516;2023-06-24T09:46:53;20.21;62.76
68378;DHT22;55322;48.146;11.516;2023-06-24T09:49:18;20.58;63.48
68378;DHT22;55322;48.146;11.516;2023-06-24T09:51:49;20.52;62.79
68378;DHT22;55322;48.146;11.516;2023-06-24T09:54:15;20.52;58.99
68378;DHT22;55322;48.146;11.516;2023-06-24T09:56:50;20.84;60.92
68378;DHT22;55322;48.146;11.516;2023-06-24T09:59:18;21.57;57.09
68378;DHT22;55322;48.146;11.516;2023-06-24T10:01:49;21.64;61.67
68378;DHT22;55322;48.146;11.516;2023-06-24T10:04:18;21.53;56.32
68378;DHT22;55322;48.146;11.516;2023-06-24T10:06:44;21.51;54.75
68378;DHT22;55322;48.146;11.516;2023-06-24T10:09:10;21.51;58.71
68378;DHT22;55322;48.146;11.516;2023-06-24T10:11:38;21.97;61.13
68378;DHT22;55322;48.146;11.516;2023-06-24T10:14:03;21.46;60.32
68378;DHT22;55322;48.146;11.516;2023-06-24T10:16:29;21.40;62.24
68378;DHT22;55322;48.146;11.516;2023-06-24T10:19:00;21.74;60.70
68378;DHT22;55322;48.146;11.516;2023-06-24T10:24:12;22.04;59.64
68378;DHT22;55322;48.146;11.516;2023-06-24T10:33:18;23.07;55.54
68378;DHT22;55322;48.146;11.516;2023-06-24T10:35:44;22.99;51.87
68378;DHT22;55322;48.146;11.516;2023-06-24T10:38:10;23.05;52.16
68378;DHT22;55322;48.146;11.516;2023-06-24T10:40:37;23.13;53.75
68378;DHT22;55322;48.146;11.516;2023-06-24T10:45:55;22.99;53.38
68378;DHT22;55322;48.146;11.516;2023-06-24T10:48:21;22.84;51.29
68378;DHT22;55322;48.146;11.516;2023-06-24T10:50:49;22.89;57.36
68378;DHT22;55322;48.146;11.516;2023-06-24T10:53:15;23.09;53.66
68378;DHT22;55322;48.146;11.516;2023-06-24T10:55:43;23.00;51.74
68378;DHT22;55322;48.146;11.516;2023-06-24T10:58:10;23.07;54.05
68378;DHT22;55322;48.146;11.516;2023-06-24T11:00:36;22.75;51.68
68378;DHT22;55322;48.146;11.516;2023-06-24T11:03:15;22.64;51.67
68378;DHT22;55322;48.146;11.516;2023-06-24T11:05:43;22.55;51.36
68378;DHT22;55322;48.146;11.516;2023-06-24T11:08:09;22.71;50.19
68378;DHT22;55322;48.146;11.516;2023-06-24T11:10:55;22.88;53.08
68378;DHT22;55322;48.146;11.516;2023-06-24T11:13:20;22.92;47.81
68378;DHT22;55322;48.146;11.516;2023-06-24T11:15:45;23.20;47.52
68378;DHT22;55322;48.146;11.516;2023-06-24T11:18:11;23.36;48.24
68378;DHT22;55322;48.146;11.516;2023-06-24T11:20:39;23.20;48.38
68378;DHT22;55322;48.146;11.516;2023-06-24T11:23:09;23.33;46.35
68378;DHT22;55322;48.146;11.516;2023-06-24T11:25:40;23.00;52.98
68378;DHT22;55322;48.146;11.516;2023-06-24T11:28:16;23.23;45.49
68378;DHT22;55322;48.146;11.516;2023-06-24T11:30:42;23.45;45.09
68378;DHT22;55322;48.146;11.516;2023-06-24T11:33:07;23.61;47.95
68378;DHT22;55322;48.146;11.516;2023-06-24T11:35:33;23.45;47.22
68378;DHT22;55322;48.146;11.516;2023-06-24T11:38:01;23.60;48.77
68378;DHT22;55322;48.146;11.516;2023-06-24T11:40:26;23.27;42.94
68378;DHT22;55322;48.146;11.516;2023-06-24T11:42:52;22.71;49.42
68378;DHT22;55322;48.146;11.516;2023-06-24T11:45:20;22.52;45.30
68378;DHT22;55322;48.146;11.516;2023-06-24T11:47:46;22.82;47.37
68378;DHT22;55322;48.146;11.516;2023-06-24T11:50:11;22.81;50.85
68378;DHT22;55322;48.146;11.516;2023-06-24T11:52:49;23.07;49.22
68378;DHT22;55322;48.146;11.516;2023-06-24T11:55:19;23.22;50.30
68378;DHT22;55322;48.146;11.516;2023-06-24T11:57:52;22.88;48.80
68378;DHT22;55322;48.146;11.516;2023-06-24T12:00:26;22.88;50.80
68378;DHT22;55322;48.146;11.516;2023-06-24T12:03:00;23.13;49.64
68378;DHT22;55322;48.146;11.516;2023-06-24T12:05:33;22.65;50.73
68378;DHT22;55322;48.146;11.516;2023-06-24T12:08:01;22.84;48.42
68378;DHT22;55322;48.146;11.516;2023-06-24T12:10:27;23.29;47.96
68378;DHT22;55322;48.146;11.516;2023-06-24T12:12:55;23.19;47.93
68378;DHT22;55322;48.146;11.516;2023-06-24T12:15:21;23.63;50.03
68378;DHT22;55322;48.146;11.516;2023-06-24T12:17:47;23.97;49.23
68378;DHT22;55322;48.146;11.516;2023-06-24T12:20:13;23.97;47.94
68378;DHT22;55322;48.146;11.516;2023-06-24T12:22:39;23.60;46.39
68378;DHT22;55322;48.146;11.516;2023-06-24T12:25:05;23.29;44.50
68378;DHT22;55322;48.146;11.516;2023-06-24T12:27:30;23.42;48.48
68378;DHT22;55322;48.146;11.516;2023-06-24T12:29:56;23.22;47.27
68378;DHT22;55322;48.146;11.516;2023-06-24T12:32:21;23.10;43.92
68378;DHT22;55322;48.146;11.516;2023-06-24T12:34:46;22.96;49.27
68378;DHT22;55322;48.146;11.516;2023-06-24T12:37:12;22.96;50.70
68378;DHT22;55322;48.146;11.516;2023-06-24T12:39:37;22.89;48.88
68378;DHT22;55322;48.146;11.516;2023-06-24T12:42:02;22.66;49.79
68378;DHT22;55322;48.146;11.516;2023-06-24T12:44:28;22.42;51.64
68378;DHT22;55322;48.146;11.516;2023-06-24T12:46:53;22.47;45.98
68378;DHT22;55322;48.146;11.516;2023-06-24T12:49:18;23.02;45.48
68378;DHT22;55322;48.146;11.516;2023-06-24T12:51:43;23.19;49.43
68378;DHT22;55322;48.146;11.516;2023-06-24T12:54:09;23.46;45.26
68378;DHT22;55322;48.146;11.516;2023-06-24T12:56:34;23.45;48.33
68378;DHT22;55322;48.146;11.516;2023-06-24T12:58:59;23.22;49.33
68378;DHT22;55322;48.146;11.516;2023-06-24T13:01:25;23.06;46.69
68378;DHT22;55322;48.146;11.516;2023-06-24T13:03:50;23.13;48.28
68378;DHT22;55322;48.146;11.516;2023-06-24T13:06:15;23.13;47.22
68378;DHT22;55322;48.146;11.516;2023-06-24T13:08:41;23.27;46.75
68378;DHT22;55322;48.146;11.516;2023-06-24T13:11:06;22.92;49.61
68378;DHT22;55322;48.146;11.516;2023-06-24T13:13:32;22.86;49.90
68378;DHT22;55322;48.146;11.516;2023-06-24T13:15:57;22.49;50.57
68378;DHT22;55322;48.146;11.516;2023-06-24T13:18:22;22.11;52.61
68378;DHT22;55322;48.146;11.516;2023-06-24T13:20:48;22.01;52.86
68378;DHT22;55322;48.146;11.516;2023-06-24T13:23:13;21.94;53.90
68378;DHT22;55322;48.146;11.516;2023-06-24T13:25:38;22.18;51.20
68378;DHT22;55322;48.146;11.516;2023-06-24T13:28:04;22.22;50.10
68378;DHT22;55322;48.146;11.516;2023-06-24T13:30:29;22.51;48.21
68378;DHT22;55322;48.146;11.516;2023-06-24T13:32:54;22.96;46.08
68378;DHT22;55322;48.146;11.516;2023-06-24T13:35:20;23.05;45.20
68378;DHT22;55322;48.146;11.516;2023-06-24T13:37:45;23.27;48.29
68378;DHT22;55322;48.146;11.516;2023-06-24T13:40:11;23.46;46.65
68378;DHT22;55322;48.146;11.516;2023-06-24T13:42:36;23.54;45.55
68378;DHT22;55322;48.146;11.516;2023-06-24T13:45:02;23.34;45.15
68378;DHT22;55322;48.146;11.516;2023-06-24T13:47:27;23.56;44.40
68378;DHT22;55322;48.146;11.516;2023-06-24T13:49:53;23.51;44.94
68378;DHT22;55322;48.146;11.516;2023-06-24T13:52:18;23.20;43.42
68378;DHT22;55322;48.146;11.516;2023-06-24T13:54:43;23.06;46.94
68378;DHT22;55322;48.146;11.516;2023-06-24T13:57:09;23.33;44.49
68378;DHT22;55322;48.146;11.516;2023-06-24T13:59:34;23.39;45.73
68378;DHT22;55322;48.146;11.516;2023-06-24T14:01:59;23.30;50.41
68378;DHT22;55322;48.146;11.516;2023-06-24T14:04:24;23.20;48.75
68378;DHT22;55322;48.146;11.516;2023-06-24T14:06:50;22.92;45.19
68378;DHT22;55322;48.146;11.516;2023-06-24T14:09:15;22.58;51.20
68378;DHT22;55322;48.146;11.516;2023-06-24T14:11:40;22.40;48.30
68378;DHT22;55322;48.146;11.516;2023-06-24T14:14:06;22.38;51.25
68378;DHT22;55322;48.146;11.516;2023-06-24T14:16:31;22.21;50.21
68378;DHT22;55322;48.146;11.516;2023-06-24T14:18:56;22.22;52.42
68378;DHT22;55322;48.146;11.516;2023-06-24T14:21:22;22.51;49.92
68378;DHT22;55322;48.146;11.516;2023-06-24T14:23:47;22.61;48.68
68378;DHT22;55322;48.146;11.516;2023-06-24T14:26:13;22.79;46.74
68378;DHT22;55322;48.146;11.516;2023-06-24T14:28:38;22.81;51.61
68378;DHT22;55322;48.146;11.516;2023-06-24T14:31:03;22.69;47.79
68378;DHT22;55322;48.146;11.516;2023-06-24T14:33:29;22.79;50.13
68378;DHT22;55322;48.146;11.516;2023-06-24T14:35:54;22.79;50.67
68378;DHT22;55322;48.146;11.516;2023-06-24T14:38:19;23.05;47.52
68378;DHT22;55322;48.146;11.516;2023-06-24T14:40:45;23.07;49.14
68378;DHT22;55322;48.146;11.516;2023-06-24T14:43:10;22.96;47.08
68378;DHT22;55322;48.146;11.516;2023-06-24T14:45:36;22.75;51.34
68378;DHT22;55322;48.146;11.516;2023-06-24T14:48:01;22.44;50.83
68378;DHT22;55322;48.146;11.516;2023-06-24T14:50:27;22.27;48.20
68378;DHT22;55322;48.146;11.516;2023-06-24T14:52:52;22.08;47.91
68378;DHT22;55322;48.146;11.516;2023-06-24T14:55:17;21.97;51.83
68378;DHT22;55322;48.146;11.516;2023-06-24T14:57:43;21.90;52.03
68378;DHT22;55322;48.146;11.516;2023-06-24T15:00:08;21.83;50.16
68378;DHT22;55322;48.146;11.516;2023-06-24T15:02:34;21.77;52.61
68378;DHT22;55322;48.146;11.516;2023-06-24T15:05:01;21.86;51.96
68378;DHT22;55322;48.146;11.516;2023-06-24T15:07:26;22.07;49.02
68378;DHT22;55322;48.146;11.516;2023-06-24T15:09:51;22.14;48.01
68378;DHT22;55322;48.146;11.516;2023-06-24T15:12:17;22.24;52.01
68378;DHT22;55322;48.146;11.516;2023-06-24T15:14:42;22.18;50.71
68378;DHT22;55322;48.146;11.516;2023-06-24T15:17:10;22.28;51.23
68378;DHT22;55322;48.146;11.516;2023-06-24T15:19:36;22.40;50.26
68378;DHT22;55322;48.146;11.516;2023-06-24T15:22:01;22.30;49.52
68378;DHT22;55322;48.146;11.516;2023-06-24T15:24:26;22.14;52.74
68378;DHT22;55322;48.146;11.516;2023-06-24T15:26:52;21.98;50.47
68378;DHT22;55322;48.146;11.516;2023-06-24T15:29:17;21.74;54.02
68378;DHT22;55322;48.146;11.516;2023-06-24T15:31:42;21.63;51.07